Latest Weather Observations for Perth Airport

IDW60801

Issued at 7:33 am WST Sunday 26 March 2017 (issued every 30 minutes, with the page automatically refreshed every 10 minutes)

About weather observations | Map of weather stations | Latest weather observations for WA | Other Formats
Station Details ID: 009021 Name: PERTH AIRPORT Lat: -31.93 Lon: 115.98 Height: 15.4 m
Data from the previous 72 hours. | See also: Recent months at Perth Airport
Date/Time
WST
Temp
°C
App
Temp
°C
Dew
Point
°C
Rel
Hum
%
Delta-T
°C
Wind Press
QNH
hPa
Press
MSL
hPa
Rain since
9am
mm
Dir  Spd
km/h
Gust
km/h
Spd
kts
Gust
kts
26/07:00am 17.1 13.8 15.0 87 1.2 SW 26 33 14 18 1011.8 1011.7 1.8
26/06:30am 16.6 12.6 15.2 91 0.8 WSW 30 46 16 25 1011.4 1011.3 1.8
26/06:07am 17.6 14.4 16.4 93 0.7 W 28 39 15 21 1010.6 1010.5 1.2
26/06:00am 18.0 14.8 16.2 89 1.1 W 28 39 15 21 1010.5 1010.4 0.8
26/05:30am 19.8 17.4 13.9 69 3.4 WNW 19 33 10 18 1010.1 1010.0 0.0
26/05:00am 19.4 17.5 14.2 72 3.0 WNW 17 24 9 13 1010.0 1009.9 0.0
26/04:30am 19.0 17.0 13.8 72 3.0 WNW 17 26 9 14 1009.8 1009.7 0.0
26/04:00am 19.4 16.7 13.0 66 3.6 WNW 19 26 10 14 1009.7 1009.6 0.0
26/03:30am 19.4 16.9 12.4 64 3.9 WNW 17 26 9 14 1009.9 1009.8 0.0
26/03:00am 18.9 17.1 12.1 64 3.8 WNW 13 19 7 10 1009.9 1009.8 0.0
26/02:30am 18.7 16.5 12.0 65 3.7 W 15 24 8 13 1009.8 1009.7 0.0
26/02:00am 18.9 16.6 11.6 62 4.0 WNW 15 20 8 11 1009.6 1009.5 0.0
26/01:30am 19.3 17.7 12.9 66 3.6 W 13 19 7 10 1009.6 1009.5 0.0
26/01:00am 19.5 18.0 13.0 66 3.7 W 13 19 7 10 1009.6 1009.5 0.0
26/12:30am 20.0 17.9 13.5 66 3.7 W 17 28 9 15 1009.9 1009.8 0.0
26/12:00am 20.2 18.7 15.3 73 2.9 W 17 26 9 14 1009.8 1009.7 0.0
 
Date/Time
WST
Temp
°C
App
Temp
°C
Dew
Point
°C
Rel
Hum
%
Delta-T
°C
Wind Press
QNH
hPa
Press
MSL
hPa
Rain since
9am
mm
Dir  Spd
km/h
Gust
km/h
Spd
kts
Gust
kts
25/11:30pm 20.2 19.0 16.0 77 2.5 WSW 17 28 9 15 1009.9 1009.8 0.0
25/11:00pm 19.5 18.8 16.3 82 1.9 WSW 15 24 8 13 1009.9 1009.8 0.0
25/10:30pm 17.4 17.6 15.7 90 1.0 WNW 9 11 5 6 1010.0 1009.9 0.0
25/10:27pm 17.2 17.3 15.5 90 1.0 WNW 9 11 5 6 1010.0 1009.9 0.0
25/10:00pm 16.1 17.6 14.7 91 0.8 CALM 0 7 0 4 1010.1 1010.0 0.0
25/09:30pm 16.9 17.3 14.8 87 1.2 SW 6 7 3 4 1010.2 1010.1 0.0
25/09:00pm 18.5 19.1 15.8 84 1.6 SSW 7 9 4 5 1010.1 1010.0 0.0
25/08:30pm 19.1 19.2 15.6 80 2.1 SW 9 11 5 6 1010.1 1010.0 0.0
25/08:00pm 19.8 18.5 14.9 73 2.9 WSW 15 19 8 10 1010.0 1009.9 0.0
25/07:30pm 20.4 19.2 14.0 66 3.7 SW 13 15 7 8 1009.7 1009.6 0.0
25/07:00pm 20.7 18.7 13.8 64 4.0 SW 17 20 9 11 1009.4 1009.3 0.0
25/06:30pm 21.5 18.8 13.5 60 4.6 WSW 20 28 11 15 1009.3 1009.2 0.0
25/06:00pm 22.6 19.5 13.3 55 5.4 SW 22 30 12 16 1009.1 1009.0 0.0
25/05:30pm 23.2 21.2 15.4 61 4.7 WSW 20 28 11 15 1008.8 1008.7 0.0
25/05:00pm 24.1 21.8 14.7 55 5.6 WSW 20 28 11 15 1008.5 1008.4 0.0
25/04:30pm 24.4 22.2 14.3 53 6.0 W 19 26 10 14 1008.3 1008.2 0.0
25/04:00pm 25.1 22.7 13.9 49 6.6 W 19 26 10 14 1008.3 1008.2 0.0
25/03:30pm 25.2 23.0 14.5 51 6.4 WSW 19 28 10 15 1008.6 1008.5 0.0
25/03:00pm 25.6 23.9 14.6 50 6.6 WSW 17 24 9 13 1008.6 1008.5 0.0
25/02:30pm 26.1 23.4 14.6 49 6.9 W 22 28 12 15 1009.0 1008.9 0.0
25/02:00pm 26.0 23.0 14.7 49 6.8 W 24 28 13 15 1009.2 1009.1 0.0
25/01:30pm 26.1 23.2 15.2 51 6.6 W 24 30 13 16 1009.3 1009.2 0.0
25/01:00pm 27.4 25.9 13.1 41 8.4 SW 13 24 7 13 1009.6 1009.5 0.0
25/12:30pm 26.4 25.7 13.3 44 7.7 N 9 17 5 9 1010.0 1009.9 0.0
25/12:00pm 26.3 25.7 13.6 45 7.5 WNW 9 15 5 8 1010.4 1010.3 0.0
25/11:30am 26.1 26.7 14.2 48 7.1 ESE 4 7 2 4 1011.0 1010.9 0.0
25/11:00am 24.9 24.4 13.9 50 6.5 ESE 9 15 5 8 1011.5 1011.4 0.0
25/10:30am 24.2 23.4 14.0 53 6.0 E 11 19 6 10 1011.9 1011.8 0.0
25/10:00am 23.2 21.1 13.6 54 5.6 ESE 17 24 9 13 1012.2 1012.1 0.0
25/09:30am 22.4 18.9 13.4 56 5.2 E 24 32 13 17 1012.3 1012.2 0.0
25/09:00am 21.2 18.0 13.2 60 4.6 E 22 32 12 17 1012.5 1012.4 0.0
25/08:30am 20.2 17.3 13.0 63 4.1 E 20 32 11 17 1012.5 1012.4 0.0
25/08:00am 19.4 17.1 13.0 66 3.6 E 17 24 9 13 1012.7 1012.6 0.0
25/07:30am 18.3 16.1 13.2 72 2.9 E 17 26 9 14 1012.8 1012.7 0.0
25/07:00am 17.3 15.1 13.4 78 2.2 E 17 26 9 14 1012.8 1012.7 0.0
25/06:30am 16.8 15.8 13.4 80 1.9 E 11 17 6 9 1012.8 1012.7 0.0
25/06:00am 16.9 15.9 13.3 79 2.0 E 11 20 6 11 1012.7 1012.6 0.0
25/05:30am 17.0 16.4 13.5 80 2.0 E 9 13 5 7 1012.5 1012.4 0.0
25/05:00am 17.0 17.3 13.5 80 2.0 SSE 4 13 2 7 1012.5 1012.4 0.0
25/04:30am 17.2 15.5 13.5 79 2.1 E 15 20 8 11 1012.5 1012.4 0.0
25/04:00am 17.2 16.3 13.7 80 2.0 ESE 11 19 6 10 1012.6 1012.5 0.0
25/03:30am 17.6 16.2 13.5 77 2.3 E 13 22 7 12 1012.5 1012.4 0.0
25/03:00am 18.1 15.0 13.5 74 2.6 E 22 35 12 19 1012.4 1012.3 0.0
25/02:30am 18.4 14.9 13.3 72 2.9 E 24 35 13 19 1012.3 1012.2 0.0
25/02:00am 18.7 16.1 13.2 70 3.1 E 19 30 10 16 1012.3 1012.2 0.0
25/01:30am 19.1 16.9 13.3 69 3.3 ESE 17 28 9 15 1012.5 1012.4 0.0
25/01:00am 19.3 16.3 12.7 65 3.7 ESE 20 32 11 17 1012.4 1012.3 0.0
25/12:30am 15.6 14.7 12.5 82 1.7 SE 9 13 5 7 1012.7 1012.6 0.0
25/12:00am 16.9 14.9 12.6 76 2.4 SSW 15 19 8 10 1013.0 1012.9 0.0
 
Date/Time
WST
Temp
°C
App
Temp
°C
Dew
Point
°C
Rel
Hum
%
Delta-T
°C
Wind Press
QNH
hPa
Press
MSL
hPa
Rain since
9am
mm
Dir  Spd
km/h
Gust
km/h
Spd
kts
Gust
kts
24/11:30pm 18.5 16.2 13.0 70 3.1 S 17 20 9 11 1013.2 1013.1 0.0
24/11:00pm 19.7 17.2 12.4 62 4.1 S 17 26 9 14 1013.1 1013.0 0.0
24/10:30pm 19.3 17.4 12.9 66 3.6 S 15 19 8 10 1013.2 1013.1 0.0
24/10:00pm 20.0 18.4 12.7 63 4.1 S 13 17 7 9 1013.4 1013.3 0.0
24/09:30pm 20.9 18.7 12.2 57 4.9 SSE 15 19 8 10 1013.6 1013.5 0.0
24/09:00pm 21.4 18.4 11.9 54 5.3 SE 19 24 10 13 1013.7 1013.6 0.0
24/08:30pm 21.7 19.2 12.3 55 5.3 SE 17 22 9 12 1013.7 1013.6 0.0
24/08:00pm 22.2 19.3 12.3 53 5.6 SE 19 26 10 14 1013.6 1013.5 0.0
24/07:30pm 22.6 19.6 12.4 52 5.8 SE 20 26 11 14 1013.3 1013.2 0.0
24/07:00pm 22.4 21.3 13.2 56 5.3 ESE 11 17 6 9 1013.1 1013.0 0.0
24/06:30pm 22.7 23.0 16.1 66 4.0 W 9 13 5 7 1012.9 1012.8 0.0
24/06:00pm 24.1 22.8 15.9 60 5.0 WSW 17 22 9 12 1012.4 1012.3 0.0
24/05:30pm 24.7 23.5 16.0 58 5.3 WSW 17 24 9 13 1012.2 1012.1 0.0
24/05:00pm 24.9 23.1 15.9 57 5.5 WSW 20 26 11 14 1012.2 1012.1 0.0
24/04:30pm 26.0 23.9 15.1 51 6.6 WSW 20 26 11 14 1012.1 1012.0 0.0
24/04:00pm 25.9 23.7 14.9 50 6.6 W 20 28 11 15 1012.2 1012.1 0.0
24/03:30pm 26.7 24.6 15.3 49 6.9 W 20 28 11 15 1012.3 1012.2 0.0
24/03:00pm 25.2 22.2 14.9 52 6.2 WSW 24 32 13 17 1012.4 1012.3 0.0
24/02:30pm 25.3 23.7 15.0 53 6.2 WSW 17 26 9 14 1012.5 1012.4 0.0
24/02:00pm 25.9 24.6 12.6 43 7.7 SSE 11 26 6 14 1012.7 1012.6 0.0
24/01:30pm 25.8 24.5 13.6 47 7.2 SSW 13 22 7 12 1013.2 1013.1 0.0
24/01:00pm 26.1 25.5 13.5 45 7.4 SSW 9 26 5 14 1013.7 1013.6 0.0
24/12:30pm 25.1 23.8 13.7 49 6.7 SSW 13 20 7 11 1014.4 1014.3 0.0
24/12:00pm 24.1 22.8 13.7 52 6.1 S 13 19 7 10 1015.0 1014.9 0.0
24/11:30am 24.1 23.3 14.1 53 5.9 SSW 11 19 6 10 1015.5 1015.4 0.0
24/11:00am 22.7 22.3 14.2 58 5.0 S 9 19 5 10 1015.7 1015.6 0.0
24/10:30am 22.3 21.6 14.3 60 4.7 SW 11 17 6 9 1016.1 1016.0 0.0
24/10:00am 20.2 19.8 14.0 67 3.6 SW 9 15 5 8 1016.5 1016.4 0.0
24/09:30am 20.7 20.9 14.1 66 3.8 SW 6 11 3 6 1016.7 1016.6 0.0
24/09:00am 20.0 19.2 14.1 69 3.4 SSW 11 17 6 9 1016.6 1016.5 0.2
24/08:30am 19.1 18.7 14.1 73 2.9 SSW 9 13 5 7 1016.4 1016.3 0.2
24/08:00am 18.1 17.3 14.1 77 2.3 S 11 15 6 8 1016.1 1016.0 0.2
24/07:30am 17.1 16.8 14.5 85 1.5 SE 9 13 5 7 1015.9 1015.8 0.2
24/07:00am 16.4 16.1 14.5 88 1.1 SE 9 13 5 7 1015.6 1015.5 0.2
24/06:30am 15.7 15.5 14.8 94 0.5 ESE 9 11 5 6 1015.3 1015.2 0.2
24/06:00am 15.5 15.3 14.8 96 0.4 S 9 11 5 6 1014.9 1014.8 0.2
24/05:30am 15.5 15.3 14.8 96 0.4 SSW 9 13 5 7 1014.6 1014.5 0.2
24/05:00am 14.9 13.9 14.7 99 0.1 SSW 13 15 7 8 1014.4 1014.3 0.2
24/04:30am 14.9 15.1 14.7 99 0.1 SW 7 9 4 5 1014.3 1014.2 0.2
24/04:00am 15.1 15.4 15.1 100 0.0 S 7 11 4 6 1014.2 1014.1 0.2
24/03:30am 15.8 15.2 15.6 99 0.1 S 13 13 7 7 1014.1 1014.0 0.2
24/03:20am 15.8 15.6 15.6 99 0.1 S 11 13 6 7 1014.2 1014.1 0.2
24/03:00am 16.0 15.8 15.7 98 0.2 S 11 13 6 7 1014.4 1014.3 0.2
24/02:30am 16.2 15.6 15.7 97 0.3 S 13 17 7 9 1014.5 1014.4 0.2
24/02:11am 16.3 16.1 15.8 97 0.3 SSW 11 13 6 7 1014.4 1014.3 0.2
24/02:00am 16.2 16.3 15.5 96 0.4 SSW 9 11 5 6 1014.3 1014.2 0.2
24/01:30am 16.7 16.5 15.7 94 0.6 S 11 13 6 7 1014.4 1014.3 0.2
24/01:00am 17.2 17.1 16.0 93 0.7 SSW 11 15 6 8 1014.5 1014.4 0.2
24/12:43am 17.2 17.0 15.8 91 0.8 SSW 11 15 6 8 1014.6 1014.5 0.2
24/12:30am 17.2 16.7 15.8 91 0.8 SSW 13 19 7 10 1014.5 1014.4 0.2
24/12:00am 17.6 17.1 15.9 90 1.0 SSW 13 17 7 9 1014.5 1014.4 0.2
 
Date/Time
WST
Temp
°C
App
Temp
°C
Dew
Point
°C
Rel
Hum
%
Delta-T
°C
Wind Press
QNH
hPa
Press
MSL
hPa
Rain since
9am
mm
Dir  Spd
km/h
Gust
km/h
Spd
kts
Gust
kts
23/11:30pm 18.4 17.6 16.0 86 1.4 SSW 15 19 8 10 1014.5 1014.4 0.2
23/11:00pm 18.4 17.9 16.0 86 1.4 SSW 13 19 7 10 1014.6 1014.5 0.2
23/10:30pm 18.2 18.0 15.8 86 1.4 SSW 11 13 6 7 1014.6 1014.5 0.2
23/10:00pm 18.3 17.0 15.8 85 1.5 SSW 17 24 9 13 1014.8 1014.7 0.2
23/09:30pm 18.7 17.7 15.7 83 1.8 SSW 15 19 8 10 1014.8 1014.7 0.2
23/09:00pm 18.8 17.4 15.6 82 1.9 SSW 17 20 9 11 1014.7 1014.6 0.2
23/08:30pm 18.8 17.4 15.6 82 1.9 SSW 17 20 9 11 1014.7 1014.6 0.2
23/08:00pm 19.2 16.8 15.5 79 2.2 SSW 22 30 12 16 1014.7 1014.6 0.2
23/07:30pm 19.5 17.4 15.1 76 2.6 SSW 20 28 11 15 1014.4 1014.3 0.2
23/07:00pm 19.7 15.9 14.7 73 2.9 SSW 28 35 15 19 1014.0 1013.9 0.2
23/06:30pm 20.3 17.0 15.0 71 3.1 SW 26 32 14 17 1013.7 1013.6 0.2
23/06:08pm 20.5 16.3 14.7 69 3.4 SW 30 35 16 19 1013.4 1013.3 0.2
23/06:00pm 20.8 17.0 14.7 68 3.6 SW 28 35 15 19 1013.4 1013.3 0.2
23/05:30pm 21.8 18.1 14.9 65 4.1 SW 28 37 15 20 1013.2 1013.1 0.2
23/05:00pm 22.9 18.7 14.6 59 4.9 SW 30 39 16 21 1013.1 1013.0 0.2
23/04:30pm 22.1 17.2 13.8 59 4.8 SW 32 37 17 20 1013.0 1012.9 0.2
23/04:00pm 22.9 18.3 13.6 55 5.4 SW 30 41 16 22 1012.7 1012.6 0.2
23/03:30pm 24.0 19.6 14.0 53 5.9 WSW 30 39 16 21 1012.6 1012.5 0.2
23/03:00pm 23.9 19.5 13.0 50 6.3 WSW 28 37 15 20 1012.4 1012.3 0.2
23/02:30pm 23.6 19.7 13.2 52 6.0 WSW 26 35 14 19 1012.3 1012.2 0.2
23/02:00pm 22.9 18.5 12.8 53 5.8 SW 28 37 15 20 1012.5 1012.4 0.2
23/01:30pm 23.7 19.6 12.7 50 6.3 SW 26 37 14 20 1012.5 1012.4 0.2
23/01:00pm 23.0 19.1 13.3 54 5.6 SW 26 37 14 20 1012.6 1012.5 0.2
23/12:30pm 23.5 20.0 13.5 53 5.8 SW 24 35 13 19 1012.8 1012.7 0.2
23/12:00pm 23.0 20.0 13.7 55 5.4 SW 22 30 12 16 1013.1 1013.0 0.0
23/11:30am 20.2 19.5 15.5 74 2.8 SW 13 19 7 10 1013.5 1013.4 0.0
23/11:00am 21.1 18.4 14.6 66 3.8 SW 22 30 12 16 1013.6 1013.5 0.0
23/10:30am 22.3 20.0 14.7 62 4.5 SSW 20 28 11 15 1013.8 1013.7 0.0
23/10:00am 20.5 18.4 15.1 71 3.2 SSW 20 26 11 14 1013.8 1013.7 0.0
23/09:30am 21.1 18.6 15.2 69 3.5 SSW 22 32 12 17 1013.8 1013.7 0.0
23/09:00am 20.4 19.0 15.5 73 2.9 SSW 17 20 9 11 1013.7 1013.6 0.2
23/08:30am 19.3 18.6 16.3 83 1.8 SSW 15 17 8 9 1013.7 1013.6 0.2
23/08:00am 18.2 17.5 16.4 89 1.1 SW 15 19 8 10 1013.5 1013.4 0.2

Other Formats:

Comma delimited format used in spreadsheet applications
http://www.bom.gov.au/fwo/IDW60801/IDW60801.94610.axf

JavaScript Object Notation format (JSON) in row-major order
http://www.bom.gov.au/fwo/IDW60801/IDW60801.94610.json